Impacts TAF Board
For situational awareness. Not to be used for flight planning purposes.
IDs:

KPDX - Portland Intl Arpt, OR, US

Issued at 1141 UTC 16 Feb 2019
Updated at 1504 UTC 16 Feb 2019
Potential Impact None Slight Moderate High
Time1453Z 16/16Z 16/17Z 16/18Z 16/19Z 16/20Z 16/21Z 16/22Z 16/23Z 17/00Z 17/01Z 17/02Z 17/03Z 17/04Z>>
Type OBS PRVL PRVL PRVL PRVL PRVL PRVL PRVL PRVL PRVL PRVL PRVL PRVL PRVL
VIS 9 >6 >6 >6 >6 >6 >6 >6 >6 >6 >6 >6 >6 >6
CIG 19 15 15 15 15 15 15 15 25 25 25 50 50 50
Cover OVC OVC OVC OVC OVC OVC OVC OVC OVC OVC OVC BKN BKN BKN
FltCat MVFR MVFR MVFR MVFR MVFR MVFR MVFR MVFR MVFR MVFR MVFR VFR VFR VFR
WX -DZ -SHRA -SHRA -SHRA -SHRA -SHRA -SHRA -SHRA -SHRA -SHRA -SHRA VCSH VCSH VCSH
WDir 90 220 220 220 220 220 220 220 230 230 230 190 190 190
WSpd 6 5 5 5 5 5 5 5 9 9 9 6 6 6
WGst -- -- -- -- -- -- -- -- -- -- -- -- -- --
Raw TAF
KPDX 161141Z 1612/1712 12007KT P6SM -SHRA OVC015
  FM161400 17005KT P6SM -SHRA OVC015
  FM161600 22005KT P6SM -SHRA OVC015
  FM162300 23009KT P6SM -SHRA OVC025
  FM170200 19006KT P6SM VCSH SCT025 BKN050
  FM170900 VRB03KT P6SM BKN050


Raw METAR
KPDX 161453Z 09006KT 9SM -DZ SCT005 BKN019 OVC024 03/03 A2982 RMK AO2 SLP099 P0000 60001 T00330028 53021
KPDX 161353Z 10007KT 10SM -DZ FEW003 BKN006 OVC020 03/03 A2980 RMK AO2 RAE25DZB47 SLP092 P0000 T00330033
KPDX 161253Z 10006KT 10SM -RA BKN009 OVC015 03/03 A2978 RMK AO2 CIG 006V011 SLP083 P0001 T00330033

METAR Board
Radar Display
Forecast Discussion
For situational awareness. Not to be used for flight planning purposes.